Private Wetterstation Wechselburg
Wetterdaten: Mittwoch, 29.06.2016
Datum Zeit Temp. +2m Bodentemp. Temp.+5cm Temp. Wind Windchill X Diff Temp. Feuchte +2m Feuchte +5cm Sonnenschein Luftdruck Regen Wind Richtung Richtung Sonnenschein Taupunkt Windchill Windben
29.06.2016 00:03 14,4 C 23,8 C 15,6 C 14,3 C 14,2 C 0,0 C 83 % 88 % 0 % 1013,4 hPa 0,0 l/m 0,0 km/h (0 Bft) NO 45 0 min 11,5 C 14,2 C 0,0 km/h (0 Bft)
29.06.2016 00:08 14,4 C 23,8 C 15,6 C 14,3 C 14,1 C 0,0 C 83 % 88 % 0 % 1013,4 hPa 0,0 l/m 0,0 km/h (0 Bft) N-NW 337 0 min 11,5 C 14,1 C 0,0 km/h (0 Bft)
29.06.2016 00:13 14,3 C 23,9 C 15,5 C 14,2 C 14,1 C 0,0 C 83 % 88 % 0 % 1013,4 hPa 0,0 l/m 0,0 km/h (0 Bft) N-NW 337 0 min 11,5 C 14,1 C 0,0 km/h (0 Bft)
29.06.2016 00:18 14,3 C 23,8 C 15,5 C 14,3 C 14,2 C 0,0 C 83 % 88 % 0 % 1013,4 hPa 0,0 l/m 0,0 km/h (0 Bft) NW 315 0 min 11,5 C 14,2 C 0,0 km/h (0 Bft)
29.06.2016 00:23 14,3 C 23,8 C 15,5 C 14,3 C 14,3 C 0,0 C 84 % 88 % 0 % 1013,1 hPa 0,0 l/m 0,0 km/h (0 Bft) NW 315 0 min 11,6 C 14,3 C 0,0 km/h (0 Bft)
29.06.2016 00:28 14,2 C 23,8 C 15,4 C 14,3 C 14,3 C 0,1 C 84 % 89 % 0 % 1013,1 hPa 0,0 l/m 0,0 km/h (0 Bft) W 270 0 min 11,5 C 14,3 C 0,0 km/h (0 Bft)
29.06.2016 00:33 14,1 C 23,8 C 15,5 C 14,3 C 14,3 C 0,2 C 84 % 89 % 0 % 1013,1 hPa 0,0 l/m 0,0 km/h (0 Bft) SW 225 0 min 11,4 C 14,3 C 0,0 km/h (0 Bft)
29.06.2016 00:38 14,1 C 23,8 C 15,4 C 14,3 C 14,3 C 0,2 C 84 % 89 % 0 % 1013,1 hPa 0,0 l/m 0,0 km/h (0 Bft) NW 315 0 min 11,4 C 14,3 C 0,0 km/h (0 Bft)
29.06.2016 00:43 14,0 C 23,8 C 15,4 C 14,3 C 14,3 C 0,3 C 84 % 89 % 0 % 1012,9 hPa 0,0 l/m 0,0 km/h (0 Bft) NO 45 0 min 11,3 C 14,3 C 0,0 km/h (0 Bft)
29.06.2016 00:48 14,0 C 23,8 C 15,5 C 14,3 C 14,3 C 0,3 C 85 % 89 % 0 % 1012,9 hPa 0,0 l/m 0,0 km/h (0 Bft) O-NO 67 0 min 11,5 C 14,3 C 0,0 km/h (0 Bft)
29.06.2016 00:53 14,0 C 23,8 C 15,5 C 14,3 C 14,3 C 0,3 C 85 % 89 % 0 % 1012,9 hPa 0,0 l/m 0,0 km/h (0 Bft) O-NO 67 0 min 11,5 C 14,3 C 0,0 km/h (0 Bft)
29.06.2016 00:58 13,9 C 23,8 C 15,4 C 14,4 C 14,4 C 0,5 C 85 % 89 % 0 % 1012,9 hPa 0,0 l/m 0,0 km/h (0 Bft) O-NO 67 0 min 11,4 C 14,4 C 0,0 km/h (0 Bft)
29.06.2016 01:03 13,9 C 23,8 C 15,5 C 14,5 C 14,5 C 0,6 C 85 % 89 % 0 % 1012,6 hPa 0,0 l/m 0,0 km/h (0 Bft) O 90 0 min 11,4 C 14,5 C 0,0 km/h (0 Bft)
29.06.2016 01:08 13,9 C 23,7 C 15,5 C 14,5 C 14,5 C 0,6 C 85 % 88 % 0 % 1012,6 hPa 0,0 l/m 0,0 km/h (0 Bft) NO 45 0 min 11,4 C 14,5 C 0,0 km/h (0 Bft)
29.06.2016 01:13 13,9 C 23,8 C 15,5 C 14,5 C 14,5 C 0,6 C 85 % 88 % 0 % 1012,6 hPa 0,0 l/m 0,0 km/h (0 Bft) O-NO 67 0 min 11,4 C 14,5 C 0,0 km/h (0 Bft)
29.06.2016 01:18 14,0 C 23,7 C 15,5 C 14,6 C 14,6 C 0,6 C 86 % 89 % 0 % 1012,6 hPa 0,0 l/m 0,0 km/h (0 Bft) O-NO 67 0 min 11,7 C 14,6 C 0,0 km/h (0 Bft)
29.06.2016 01:23 14,0 C 23,7 C 15,4 C 14,7 C 14,7 C 0,7 C 86 % 89 % 0 % 1012,4 hPa 0,0 l/m 0,0 km/h (0 Bft) N-NO 22 0 min 11,7 C 14,7 C 0,0 km/h (0 Bft)
29.06.2016 01:28 14,0 C 23,7 C 15,5 C 14,7 C 14,7 C 0,7 C 86 % 89 % 0 % 1012,4 hPa 0,0 l/m 0,0 km/h (0 Bft) W 270 0 min 11,7 C 14,7 C 0,0 km/h (0 Bft)
29.06.2016 01:33 13,9 C 23,6 C 15,5 C 14,7 C 14,7 C 0,8 C 86 % 89 % 0 % 1012,4 hPa 0,0 l/m 0,0 km/h (0 Bft) W 270 0 min 11,6 C 14,7 C 0,0 km/h (0 Bft)
29.06.2016 01:38 13,9 C 23,7 C 15,5 C 14,6 C 14,6 C 0,7 C 86 % 89 % 0 % 1012,4 hPa 0,0 l/m 0,0 km/h (0 Bft) W 270 0 min 11,6 C 14,6 C 0,0 km/h (0 Bft)
29.06.2016 01:43 13,9 C 23,6 C 15,5 C 14,6 C 14,6 C 0,7 C 86 % 89 % 0 % 1012,4 hPa 0,0 l/m 0,0 km/h (0 Bft) NW 315 0 min 11,6 C 14,6 C 0,0 km/h (0 Bft)
29.06.2016 01:48 14,0 C 23,7 C 15,5 C 14,5 C 14,5 C 0,5 C 86 % 89 % 0 % 1012,4 hPa 0,0 l/m 0,0 km/h (0 Bft) N-NW 337 0 min 11,7 C 14,5 C 0,0 km/h (0 Bft)
29.06.2016 01:53 14,0 C 23,7 C 15,4 C 14,5 C 14,5 C 0,5 C 86 % 89 % 0 % 1012,4 hPa 0,0 l/m 0,0 km/h (0 Bft) N-NO 22 0 min 11,7 C 14,5 C 0,0 km/h (0 Bft)
29.06.2016 01:58 14,0 C 23,7 C 15,4 C 14,5 C 14,5 C 0,5 C 86 % 89 % 0 % 1012,4 hPa 0,0 l/m 0,0 km/h (0 Bft) NW 315 0 min 11,7 C 14,5 C 0,0 km/h (0 Bft)
29.06.2016 02:03 14,0 C 23,7 C 15,3 C 14,5 C 14,5 C 0,5 C 86 % 89 % 0 % 1012,2 hPa 0,0 l/m 0,0 km/h (0 Bft) W 270 0 min 11,7 C 14,5 C 0,0 km/h (0 Bft)
29.06.2016 02:08 13,9 C 23,7 C 15,3 C 14,5 C 14,5 C 0,6 C 86 % 89 % 0 % 1012,2 hPa 0,0 l/m 0,0 km/h (0 Bft) W 270 0 min 11,6 C 14,5 C 0,0 km/h (0 Bft)
29.06.2016 02:13 13,9 C 23,6 C 15,3 C 14,5 C 14,5 C 0,6 C 86 % 89 % 0 % 1012,2 hPa 0,0 l/m 0,0 km/h (0 Bft) NW 315 0 min 11,6 C 14,5 C 0,0 km/h (0 Bft)
29.06.2016 02:18 13,9 C 23,6 C 15,3 C 14,5 C 14,5 C 0,6 C 86 % 89 % 0 % 1012,2 hPa 0,0 l/m 0,0 km/h (0 Bft) N-NW 337 0 min 11,6 C 14,5 C 0,0 km/h (0 Bft)
29.06.2016 02:23 14,0 C 23,6 C 15,3 C 14,5 C 14,5 C 0,5 C 86 % 89 % 0 % 1012,1 hPa 0,0 l/m 0,0 km/h (0 Bft) NW 315 0 min 11,7 C 14,5 C 0,0 km/h (0 Bft)
29.06.2016 02:28 14,0 C 23,6 C 15,3 C 14,6 C 14,6 C 0,6 C 86 % 89 % 0 % 1012,1 hPa 0,0 l/m 0,0 km/h (0 Bft) W-SW 247 0 min 11,7 C 14,6 C 0,0 km/h (0 Bft)
29.06.2016 02:33 14,0 C 23,6 C 15,5 C 14,7 C 14,7 C 0,7 C 87 % 89 % 0 % 1012,1 hPa 0,0 l/m 0,0 km/h (0 Bft) W-SW 247 0 min 11,9 C 14,7 C 0,0 km/h (0 Bft)
29.06.2016 02:38 14,1 C 23,6 C 15,5 C 14,7 C 14,7 C 0,6 C 87 % 89 % 0 % 1012,1 hPa 0,0 l/m 0,0 km/h (0 Bft) S 180 0 min 12,0 C 14,7 C 0,0 km/h (0 Bft)
29.06.2016 02:43 14,0 C 23,6 C 15,5 C 14,8 C 14,8 C 0,8 C 87 % 89 % 0 % 1011,9 hPa 0,0 l/m 0,0 km/h (0 Bft) W 270 0 min 11,9 C 14,8 C 0,0 km/h (0 Bft)
29.06.2016 02:48 14,0 C 23,6 C 15,5 C 14,9 C 14,9 C 0,9 C 87 % 89 % 0 % 1011,9 hPa 0,0 l/m 0,0 km/h (0 Bft) O-NO 67 0 min 11,9 C 14,9 C 0,0 km/h (0 Bft)
29.06.2016 02:53 14,0 C 23,7 C 15,4 C 14,9 C 14,9 C 0,9 C 87 % 89 % 0 % 1011,9 hPa 0,0 l/m 0,0 km/h (0 Bft) O 90 0 min 11,9 C 14,9 C 0,0 km/h (0 Bft)
29.06.2016 02:58 14,1 C 23,6 C 15,4 C 15,0 C 15,0 C 0,9 C 87 % 89 % 0 % 1011,9 hPa 0,0 l/m 0,0 km/h (0 Bft) W-SW 247 0 min 12,0 C 15,0 C 0,0 km/h (0 Bft)
29.06.2016 03:03 14,1 C 23,6 C 15,5 C 15,0 C 15,0 C 0,9 C 87 % 89 % 0 % 1011,8 hPa 0,0 l/m 0,0 km/h (0 Bft) W-SW 247 0 min 12,0 C 15,0 C 0,0 km/h (0 Bft)
29.06.2016 03:08 14,2 C 23,6 C 15,5 C 15,1 C 15,1 C 0,9 C 87 % 89 % 0 % 1011,8 hPa 0,0 l/m 0,0 km/h (0 Bft) W-SW 247 0 min 12,1 C 15,1 C 0,0 km/h (0 Bft)
29.06.2016 03:13 14,3 C 23,6 C 15,5 C 15,1 C 15,1 C 0,8 C 87 % 89 % 0 % 1011,8 hPa 0,0 l/m 0,0 km/h (0 Bft) W-SW 247 0 min 12,2 C 15,1 C 0,0 km/h (0 Bft)
29.06.2016 03:18 14,2 C 23,6 C 15,6 C 15,2 C 15,2 C 1,0 C 87 % 89 % 0 % 1011,8 hPa 0,0 l/m 0,0 km/h (0 Bft) W-SW 247 0 min 12,1 C 15,2 C 0,0 km/h (0 Bft)
29.06.2016 03:23 14,3 C 23,6 C 15,6 C 15,3 C 15,3 C 1,0 C 87 % 89 % 0 % 1011,5 hPa 0,0 l/m 0,0 km/h (0 Bft) W-NW 292 0 min 12,2 C 15,3 C 0,0 km/h (0 Bft)
29.06.2016 03:28 14,3 C 23,6 C 15,6 C 15,4 C 15,4 C 1,1 C 87 % 89 % 0 % 1011,5 hPa 0,0 l/m 0,0 km/h (0 Bft) W-SW 247 0 min 12,2 C 15,4 C 0,0 km/h (0 Bft)
29.06.2016 03:33 14,3 C 23,6 C 15,6 C 15,4 C 15,4 C 1,1 C 87 % 89 % 0 % 1011,5 hPa 0,0 l/m 0,0 km/h (0 Bft) W 270 0 min 12,2 C 15,4 C 0,0 km/h (0 Bft)
29.06.2016 03:38 14,3 C 23,7 C 15,7 C 15,3 C 15,3 C 1,0 C 87 % 89 % 0 % 1011,5 hPa 0,0 l/m 0,0 km/h (0 Bft) O-SO 112 0 min 12,2 C 15,3 C 0,0 km/h (0 Bft)
29.06.2016 03:43 14,5 C 23,7 C 15,6 C 15,2 C 15,2 C 0,7 C 88 % 89 % 0 % 1011,8 hPa 0,0 l/m 0,2 km/h (0 Bft) NW 315 0 min 12,5 C 15,2 C 3,1 km/h (1 Bft)
29.06.2016 03:48 14,4 C 23,7 C 15,5 C 15,0 C 15,0 C 0,6 C 88 % 89 % 0 % 1011,8 hPa 0,0 l/m 0,8 km/h (0 Bft) W-NW 292 0 min 12,4 C 15,0 C 0,0 km/h (0 Bft)
29.06.2016 03:53 14,4 C 23,7 C 15,5 C 14,9 C 14,9 C 0,5 C 87 % 89 % 0 % 1011,8 hPa 0,0 l/m 0,8 km/h (0 Bft) O 90 0 min 12,3 C 14,9 C 0,0 km/h (0 Bft)
29.06.2016 03:58 14,4 C 23,7 C 15,5 C 14,9 C 14,9 C 0,5 C 87 % 89 % 0 % 1011,8 hPa 0,0 l/m 0,2 km/h (0 Bft) O-SO 112 0 min 12,3 C 14,9 C 0,0 km/h (0 Bft)
29.06.2016 04:03 14,5 C 23,7 C 15,4 C 14,9 C 14,9 C 0,4 C 88 % 89 % 0 % 1011,7 hPa 0,0 l/m 0,2 km/h (0 Bft) O-NO 67 0 min 12,5 C 14,9 C 0,0 km/h (0 Bft)
29.06.2016 04:08 14,5 C 23,7 C 15,5 C 14,9 C 14,9 C 0,4 C 88 % 89 % 0 % 1011,7 hPa 0,0 l/m 0,0 km/h (0 Bft) NW 315 0 min 12,5 C 14,9 C 0,0 km/h (0 Bft)
29.06.2016 04:13 14,5 C 23,7 C 15,5 C 15,0 C 15,0 C 0,5 C 88 % 89 % 0 % 1011,7 hPa 0,0 l/m 0,0 km/h (0 Bft) NO 45 0 min 12,5 C 15,0 C 0,0 km/h (0 Bft)
29.06.2016 04:18 14,6 C 23,7 C 15,6 C 15,0 C 15,0 C 0,4 C 88 % 89 % 0 % 1011,7 hPa 0,7 l/m 0,0 km/h (0 Bft) W 270 0 min 12,6 C 15,0 C 0,0 km/h (0 Bft)
29.06.2016 04:23 14,6 C 23,7 C 15,5 C 15,0 C 15,0 C 0,4 C 88 % 89 % 0 % 1012,1 hPa 0,0 l/m 0,0 km/h (0 Bft) O-NO 67 0 min 12,6 C 15,0 C 0,0 km/h (0 Bft)
29.06.2016 04:28 14,5 C 23,7 C 15,3 C 15,0 C 15,0 C 0,5 C 88 % 89 % 0 % 1012,1 hPa 0,7 l/m 0,3 km/h (0 Bft) O-NO 67 0 min 12,5 C 15,0 C 0,0 km/h (0 Bft)
29.06.2016 04:33 14,6 C 23,7 C 15,4 C 15,0 C 15,0 C 0,4 C 88 % 88 % 0 % 1012,1 hPa 0,0 l/m 0,3 km/h (0 Bft) O-NO 67 0 min 12,6 C 15,0 C 0,0 km/h (0 Bft)
29.06.2016 04:38 14,6 C 23,6 C 15,4 C 15,0 C 15,0 C 0,4 C 88 % 87 % 0 % 1012,1 hPa 0,7 l/m 0,0 km/h (0 Bft) O-NO 67 0 min 12,6 C 15,0 C 0,0 km/h (0 Bft)
29.06.2016 04:43 14,7 C 23,6 C 15,5 C 15,0 C 15,0 C 0,3 C 88 % 86 % 0 % 1011,6 hPa 0,0 l/m 0,0 km/h (0 Bft) O-NO 67 0 min 12,7 C 15,0 C 0,0 km/h (0 Bft)
29.06.2016 04:48 14,6 C 23,6 C 15,3 C 15,1 C 15,1 C 0,5 C 88 % 85 % 0 % 1011,6 hPa 0,0 l/m 0,0 km/h (0 Bft) O-NO 67 0 min 12,6 C 15,1 C 0,0 km/h (0 Bft)
29.06.2016 04:53 14,7 C 23,6 C 15,3 C 15,2 C 15,2 C 0,5 C 88 % 84 % 0 % 1011,6 hPa 0,7 l/m 0,0 km/h (0 Bft) O-NO 67 0 min 12,7 C 15,2 C 0,0 km/h (0 Bft)
29.06.2016 04:58 14,8 C 23,6 C 15,3 C 15,2 C 15,2 C 0,4 C 89 % 83 % 0 % 1011,6 hPa 0,7 l/m 0,0 km/h (0 Bft) N-NW 337 0 min 13,0 C 15,2 C 0,0 km/h (0 Bft)
29.06.2016 05:03 14,8 C 23,6 C 15,3 C 15,2 C 15,2 C 0,4 C 89 % 83 % 0 % 1011,9 hPa 0,0 l/m 0,0 km/h (0 Bft) NW 315 0 min 13,0 C 15,2 C 0,0 km/h (0 Bft)
29.06.2016 05:08 14,9 C 23,6 C 15,3 C 15,4 C 15,4 C 0,5 C 89 % 81 % 0 % 1011,9 hPa 2,1 l/m 0,2 km/h (0 Bft) SW 225 0 min 13,1 C 15,4 C 1,9 km/h (1 Bft)
29.06.2016 05:13 14,9 C 23,6 C 15,4 C 15,4 C 15,4 C 0,5 C 89 % 80 % 13 % 1011,9 hPa 1,4 l/m 0,3 km/h (0 Bft) S 180 5 min 13,1 C 15,4 C 0,0 km/h (0 Bft)
29.06.2016 05:18 14,8 C 23,6 C 15,4 C 15,4 C 15,4 C 0,6 C 89 % 79 % 16 % 1011,9 hPa 2,1 l/m 0,2 km/h (0 Bft) NO 45 5 min 13,0 C 15,4 C 0,0 km/h (0 Bft)
29.06.2016 05:23 14,9 C 23,6 C 15,5 C 15,4 C 15,4 C 0,5 C 89 % 79 % 13 % 1011,7 hPa 0,7 l/m 0,3 km/h (0 Bft) S-SO 157 5 min 13,1 C 15,4 C 0,0 km/h (0 Bft)
29.06.2016 05:28 15,1 C 23,6 C 15,5 C 15,5 C 15,5 C 0,4 C 89 % 78 % 11 % 1011,7 hPa 0,0 l/m 0,8 km/h (0 Bft) SO 135 0 min 13,3 C 15,5 C 0,0 km/h (0 Bft)
29.06.2016 05:33 15,0 C 23,6 C 15,6 C 15,5 C 15,5 C 0,5 C 89 % 77 % 13 % 1011,7 hPa 0,7 l/m 0,6 km/h (0 Bft) O-SO 112 0 min 13,2 C 15,5 C 0,0 km/h (0 Bft)
29.06.2016 05:38 15,1 C 23,6 C 15,6 C 15,6 C 15,6 C 0,5 C 89 % 76 % 13 % 1011,7 hPa 0,7 l/m 0,5 km/h (0 Bft) N-NO 22 0 min 13,3 C 15,6 C 0,0 km/h (0 Bft)
29.06.2016 06:34 15,3 C 23,6 C 16,0 C 15,7 C 15,7 C 0,4 C 90 % 72 % 11 % 1011,1 hPa 2,1 l/m 0,0 km/h (0 Bft) S-SO 157 0 min 13,7 C 15,7 C 0,0 km/h (0 Bft)
29.06.2016 06:40 15,5 C 23,6 C 16,1 C 15,9 C 15,9 C 0,4 C 90 % 72 % 11 % 1011,1 hPa 0,0 l/m 0,0 km/h (0 Bft) SW 225 0 min 13,9 C 15,9 C 0,0 km/h (0 Bft)
29.06.2016 06:45 15,5 C 23,6 C 16,1 C 15,9 C 15,9 C 0,4 C 90 % 72 % 11 % 1010,9 hPa 0,0 l/m 0,0 km/h (0 Bft) S-SW 202 0 min 13,9 C 15,9 C 0,0 km/h (0 Bft)
29.06.2016 06:50 15,4 C 23,6 C 16,2 C 16,0 C 16,0 C 0,6 C 90 % 71 % 16 % 1010,9 hPa 0,0 l/m 0,0 km/h (0 Bft) O 90 0 min 13,8 C 16,0 C 0,0 km/h (0 Bft)
29.06.2016 06:55 15,5 C 23,6 C 16,3 C 15,9 C 15,9 C 0,4 C 90 % 71 % 11 % 1010,9 hPa 0,0 l/m 0,0 km/h (0 Bft) O-NO 67 0 min 13,9 C 15,9 C 0,0 km/h (0 Bft)
29.06.2016 07:00 15,5 C 23,6 C 16,2 C 16,0 C 16,0 C 0,5 C 90 % 71 % 13 % 1010,9 hPa 0,0 l/m 0,0 km/h (0 Bft) O 90 0 min 13,9 C 16,0 C 0,0 km/h (0 Bft)
29.06.2016 07:05 15,5 C 23,6 C 16,3 C 16,0 C 16,0 C 0,5 C 90 % 71 % 13 % 1010,9 hPa 0,0 l/m 0,0 km/h (0 Bft) SO 135 0 min 13,9 C 16,0 C 0,0 km/h (0 Bft)
29.06.2016 07:10 15,6 C 23,6 C 16,3 C 16,0 C 16,0 C 0,4 C 90 % 71 % 11 % 1010,9 hPa 0,0 l/m 0,0 km/h (0 Bft) SW 225 0 min 14,0 C 16,0 C 0,0 km/h (0 Bft)
29.06.2016 07:15 15,6 C 23,6 C 16,3 C 16,1 C 16,1 C 0,5 C 90 % 71 % 13 % 1010,9 hPa 0,0 l/m 0,0 km/h (0 Bft) NW 315 0 min 14,0 C 16,1 C 0,0 km/h (0 Bft)
29.06.2016 07:20 15,7 C 23,6 C 16,3 C 16,1 C 16,1 C 0,4 C 90 % 71 % 11 % 1010,9 hPa 0,0 l/m 0,0 km/h (0 Bft) W 270 0 min 14,1 C 16,1 C 0,0 km/h (0 Bft)
29.06.2016 07:25 15,6 C 23,6 C 16,4 C 16,2 C 16,2 C 0,6 C 91 % 71 % 16 % 1011,1 hPa 0,0 l/m 0,0 km/h (0 Bft) NW 315 0 min 14,1 C 16,2 C 0,0 km/h (0 Bft)
29.06.2016 07:30 15,8 C 23,6 C 16,4 C 16,3 C 16,3 C 0,5 C 91 % 71 % 13 % 1011,1 hPa 0,0 l/m 0,0 km/h (0 Bft) S-SO 157 0 min 14,3 C 16,3 C 0,0 km/h (0 Bft)
29.06.2016 07:35 15,9 C 23,6 C 16,5 C 16,4 C 16,4 C 0,5 C 91 % 71 % 13 % 1011,1 hPa 0,0 l/m 0,0 km/h (0 Bft) SW 225 0 min 14,4 C 16,4 C 0,0 km/h (0 Bft)
29.06.2016 07:40 15,9 C 23,6 C 16,6 C 16,6 C 16,6 C 0,7 C 91 % 70 % 18 % 1011,1 hPa 0,0 l/m 0,3 km/h (0 Bft) S-SO 157 0 min 14,4 C 16,6 C 3,2 km/h (1 Bft)
29.06.2016 07:45 16,1 C 23,6 C 16,7 C 16,8 C 16,8 C 0,7 C 91 % 70 % 18 % 1011,4 hPa 0,0 l/m 0,5 km/h (0 Bft) SW 225 0 min 14,6 C 16,8 C 1,6 km/h (1 Bft)
29.06.2016 07:50 16,3 C 23,6 C 16,9 C 17,1 C 17,1 C 0,8 C 91 % 70 % 21 % 1011,4 hPa 0,0 l/m 0,3 km/h (0 Bft) W-SW 247 0 min 14,8 C 17,1 C 2,4 km/h (1 Bft)
29.06.2016 07:55 16,3 C 23,6 C 16,8 C 17,3 C 17,3 C 1,0 C 91 % 70 % 26 % 1011,4 hPa 0,0 l/m 0,6 km/h (0 Bft) S 180 0 min 14,8 C 17,3 C 3,4 km/h (1 Bft)
29.06.2016 08:00 16,4 C 23,6 C 17,1 C 17,6 C 17,6 C 1,2 C 91 % 70 % 32 % 1011,4 hPa 0,0 l/m 1,4 km/h (1 Bft) SO 135 0 min 14,9 C 17,6 C 3,9 km/h (1 Bft)
29.06.2016 08:05 16,4 C 23,6 C 17,1 C 18,1 C 18,1 C 1,7 C 91 % 70 % 45 % 1011,5 hPa 0,0 l/m 1,6 km/h (1 Bft) O-SO 112 0 min 14,9 C 18,1 C 2,4 km/h (1 Bft)
29.06.2016 08:10 16,7 C 23,6 C 17,2 C 18,7 C 18,7 C 2,0 C 92 % 70 % 53 % 1011,5 hPa 0,0 l/m 1,6 km/h (1 Bft) N-NW 337 0 min 15,4 C 18,7 C 6,3 km/h (2 Bft)
29.06.2016 08:15 16,7 C 23,6 C 17,2 C 18,9 C 18,9 C 2,2 C 92 % 70 % 58 % 1011,5 hPa 0,0 l/m 1,9 km/h (1 Bft) S 180 0 min 15,4 C 18,9 C 2,4 km/h (1 Bft)
29.06.2016 08:20 16,9 C 23,6 C 17,3 C 19,4 C 19,4 C 2,5 C 92 % 70 % 66 % 1011,5 hPa 0,0 l/m 2,3 km/h (1 Bft) S 180 0 min 15,6 C 19,4 C 5,1 km/h (1 Bft)
29.06.2016 08:25 16,8 C 23,6 C 17,4 C 19,5 C 19,5 C 2,7 C 92 % 70 % 71 % 1011,4 hPa 0,0 l/m 2,1 km/h (1 Bft) SO 135 0 min 15,5 C 19,5 C 0,0 km/h (0 Bft)
29.06.2016 08:30 17,0 C 23,6 C 17,5 C 20,3 C 20,3 C 3,3 C 92 % 70 % 87 % 1011,4 hPa 0,0 l/m 2,3 km/h (1 Bft) S-SO 157 5 min 15,7 C 20,3 C 8,5 km/h (2 Bft)
29.06.2016 08:35 17,3 C 23,6 C 17,6 C 21,2 C 21,2 C 3,9 C 92 % 70 % 100 % 1011,4 hPa 0,0 l/m 2,4 km/h (1 Bft) S-SO 157 5 min 16,0 C 21,2 C 5,8 km/h (2 Bft)
29.06.2016 08:40 17,6 C 23,6 C 17,9 C 23,6 C 23,6 C 6,0 C 92 % 70 % 100 % 1011,4 hPa 0,0 l/m 1,8 km/h (1 Bft) NW 315 5 min 16,3 C 23,6 C 0,0 km/h (0 Bft)
29.06.2016 08:45 18,1 C 23,6 C 17,9 C 24,1 C 24,1 C 6,0 C 92 % 70 % 100 % 1011,7 hPa 0,0 l/m 1,1 km/h (1 Bft) NW 315 5 min 16,8 C 24,1 C 1,8 km/h (1 Bft)
29.06.2016 08:50 18,3 C 23,6 C 18,0 C 24,1 C 24,1 C 5,8 C 92 % 70 % 100 % 1011,7 hPa 0,0 l/m 1,0 km/h (0 Bft) O-SO 112 5 min 17,0 C 24,1 C 0,0 km/h (0 Bft)
29.06.2016 08:55 18,3 C 23,6 C 17,9 C 23,6 C 23,6 C 5,3 C 92 % 69 % 100 % 1011,7 hPa 0,0 l/m 1,6 km/h (1 Bft) S-SW 202 5 min 17,0 C 23,6 C 4,3 km/h (1 Bft)
29.06.2016 09:00 18,2 C 23,6 C 17,7 C 23,5 C 23,5 C 5,3 C 91 % 69 % 100 % 1011,7 hPa 0,0 l/m 2,1 km/h (1 Bft) W-SW 247 5 min 16,7 C 23,5 C 0,0 km/h (0 Bft)
29.06.2016 09:05 18,3 C 23,6 C 17,8 C 24,7 C 24,7 C 6,4 C 91 % 69 % 100 % 1011,3 hPa 0,0 l/m 2,3 km/h (1 Bft) S 180 5 min 16,8 C 24,7 C 5,0 km/h (1 Bft)
29.06.2016 09:10 18,8 C 23,6 C 17,8 C 26,6 C 26,6 C 7,8 C 91 % 69 % 100 % 1011,3 hPa 0,0 l/m 1,9 km/h (1 Bft) S 180 5 min 17,3 C 26,6 C 3,9 km/h (1 Bft)
29.06.2016 09:15 18,9 C 23,6 C 17,9 C 27,2 C 27,2 C 8,3 C 91 % 69 % 100 % 1011,3 hPa 0,0 l/m 2,4 km/h (1 Bft) O-SO 112 5 min 17,4 C 27,2 C 6,8 km/h (2 Bft)
29.06.2016 09:20 19,1 C 23,6 C 17,7 C 27,9 C 27,9 C 8,8 C 90 % 69 % 100 % 1011,3 hPa 0,0 l/m 2,6 km/h (1 Bft) SO 135 5 min 17,4 C 27,9 C 4,0 km/h (1 Bft)
29.06.2016 09:25 19,1 C 23,6 C 17,7 C 28,1 C 28,1 C 9,0 C 89 % 69 % 100 % 1011,2 hPa 0,0 l/m 2,6 km/h (1 Bft) S 180 5 min 17,2 C 28,1 C 5,5 km/h (1 Bft)
29.06.2016 09:30 19,1 C 23,6 C 17,6 C 28,4 C 28,4 C 9,3 C 88 % 69 % 100 % 1011,2 hPa 0,0 l/m 2,3 km/h (1 Bft) SW 225 5 min 17,1 C 28,4 C 3,4 km/h (1 Bft)
29.06.2016 09:35 19,1 C 23,6 C 17,9 C 29,0 C 29,0 C 9,9 C 87 % 69 % 100 % 1011,2 hPa 0,0 l/m 1,8 km/h (1 Bft) SW 225 5 min 16,9 C 29,0 C 0,0 km/h (0 Bft)
29.06.2016 09:47 18,8 C 23,6 C 17,9 C 27,3 C 27,3 C 8,5 C 85 % 69 % 100 % 1011,4 hPa 0,0 l/m 1,6 km/h (1 Bft) N 0 12 min 16,2 C 27,3 C 2,1 km/h (1 Bft)
29.06.2016 10:11 18,7 C 23,6 C 18,0 C 28,1 C 28,1 C 9,4 C 81 % 69 % 100 % 1011,4 hPa 0,0 l/m 3,2 km/h (1 Bft) S-SO 157 24 min 15,4 C 28,1 C 11,4 km/h (2 Bft)
29.06.2016 10:13 18,8 C 23,0 C 18,3 C 27,9 C 27,9 C 9,1 C 81 % 69 % 100 % 1011,4 hPa 0,0 l/m 3,2 km/h (1 Bft) W-SW 247 2 min 15,5 C 27,9 C 2,6 km/h (1 Bft)
29.06.2016 10:20 18,8 C 23,0 C 18,4 C 28,1 C 28,1 C 9,3 C 81 % 69 % 100 % 1011,4 hPa 0,0 l/m 3,2 km/h (1 Bft) S-SO 157 7 min 15,5 C 28,1 C 3,1 km/h (1 Bft)
29.06.2016 10:30 19,2 C 23,0 C 18,8 C 26,5 C 26,5 C 7,3 C 80 % 69 % 100 % 1011,4 hPa 0,0 l/m 1,9 km/h (1 Bft) SO 135 10 min 15,7 C 26,5 C 0,0 km/h (0 Bft)
29.06.2016 10:40 19,9 C 23,0 C 19,3 C 28,4 C 28,4 C 8,5 C 80 % 68 % 100 % 1011,4 hPa 0,0 l/m 1,9 km/h (1 Bft) S 180 10 min 16,3 C 28,4 C 10,6 km/h (2 Bft)
29.06.2016 10:45 20,3 C 23,0 C 19,5 C 28,7 C 28,7 C 8,4 C 79 % 69 % 100 % 1011,6 hPa 0,0 l/m 2,3 km/h (1 Bft) SO 135 5 min 16,5 C 28,7 C 7,2 km/h (2 Bft)
29.06.2016 10:50 20,6 C 23,0 C 19,7 C 27,0 C 27,0 C 6,4 C 77 % 69 % 100 % 1011,6 hPa 0,0 l/m 2,9 km/h (1 Bft) S 180 5 min 16,4 C 27,0 C 2,9 km/h (1 Bft)
29.06.2016 11:00 20,7 C 23,0 C 19,7 C 25,4 C 25,4 C 4,7 C 76 % 70 % 100 % 1011,6 hPa 0,0 l/m 3,1 km/h (1 Bft) W 270 10 min 16,3 C 25,4 C 1,8 km/h (1 Bft)
29.06.2016 11:05 20,9 C 23,0 C 20,0 C 26,1 C 26,1 C 5,2 C 75 % 70 % 100 % 1011,5 hPa 0,0 l/m 2,6 km/h (1 Bft) S-SW 202 5 min 16,3 C 26,1 C 9,2 km/h (2 Bft)
29.06.2016 11:10 21,3 C 23,0 C 20,0 C 26,0 C 26,0 C 4,7 C 73 % 72 % 100 % 1011,5 hPa 0,0 l/m 3,4 km/h (1 Bft) W-NW 292 5 min 16,3 C 26,0 C 4,5 km/h (1 Bft)
29.06.2016 11:15 21,3 C 23,0 C 19,9 C 25,5 C 25,5 C 4,2 C 73 % 74 % 100 % 1011,5 hPa 0,0 l/m 4,2 km/h (1 Bft) W 270 5 min 16,3 C 25,5 C 3,1 km/h (1 Bft)
29.06.2016 11:20 21,3 C 23,0 C 20,1 C 26,2 C 26,2 C 4,9 C 73 % 76 % 100 % 1011,5 hPa 0,0 l/m 3,5 km/h (1 Bft) S-SW 202 5 min 16,3 C 26,2 C 6,1 km/h (2 Bft)
29.06.2016 11:25 21,4 C 23,2 C 20,3 C 26,2 C 26,2 C 4,8 C 73 % 77 % 100 % 1011,7 hPa 0,0 l/m 3,1 km/h (1 Bft) SW 225 5 min 16,4 C 26,2 C 4,7 km/h (1 Bft)
29.06.2016 11:30 21,6 C 23,2 C 20,4 C 26,9 C 26,9 C 5,3 C 72 % 79 % 100 % 1011,7 hPa 0,0 l/m 3,4 km/h (1 Bft) O 90 5 min 16,3 C 26,9 C 2,3 km/h (1 Bft)
29.06.2016 11:35 21,9 C 23,2 C 20,3 C 26,6 C 26,6 C 4,7 C 71 % 80 % 100 % 1011,7 hPa 0,0 l/m 3,5 km/h (1 Bft) SO 135 5 min 16,4 C 26,6 C 4,7 km/h (1 Bft)
29.06.2016 11:40 21,8 C 23,3 C 20,3 C 26,2 C 26,2 C 4,4 C 71 % 81 % 100 % 1011,7 hPa 0,0 l/m 2,9 km/h (1 Bft) W-SW 247 5 min 16,3 C 26,2 C 3,5 km/h (1 Bft)
29.06.2016 11:45 21,9 C 23,2 C 20,4 C 26,1 C 26,1 C 4,2 C 70 % 82 % 100 % 1011,8 hPa 0,0 l/m 3,2 km/h (1 Bft) S-SO 157 5 min 16,2 C 26,1 C 7,1 km/h (2 Bft)
29.06.2016 11:50 21,9 C 23,3 C 20,4 C 26,1 C 26,1 C 4,2 C 70 % 84 % 100 % 1011,8 hPa 0,0 l/m 4,2 km/h (1 Bft) SW 225 5 min 16,2 C 26,1 C 3,1 km/h (1 Bft)
29.06.2016 11:55 21,8 C 23,3 C 20,5 C 26,5 C 26,5 C 4,7 C 72 % 84 % 100 % 1011,8 hPa 0,0 l/m 3,7 km/h (1 Bft) S 180 5 min 16,5 C 26,5 C 2,7 km/h (1 Bft)
29.06.2016 12:00 22,0 C 23,3 C 20,9 C 26,9 C 26,9 C 4,9 C 71 % 85 % 100 % 1011,8 hPa 0,0 l/m 2,7 km/h (1 Bft) NW 315 5 min 16,5 C 26,9 C 2,3 km/h (1 Bft)
29.06.2016 12:05 22,0 C 23,2 C 21,0 C 27,6 C 27,6 C 5,6 C 72 % 86 % 100 % 1011,6 hPa 0,0 l/m 2,7 km/h (1 Bft) S 180 5 min 16,7 C 27,6 C 3,9 km/h (1 Bft)
29.06.2016 12:10 22,2 C 23,2 C 20,9 C 26,7 C 26,7 C 4,5 C 71 % 86 % 100 % 1011,6 hPa 0,0 l/m 2,9 km/h (1 Bft) S 180 5 min 16,7 C 26,7 C 5,5 km/h (1 Bft)
29.06.2016 12:15 22,1 C 23,2 C 20,8 C 25,8 C 25,8 C 3,7 C 70 % 86 % 97 % 1011,6 hPa 0,0 l/m 2,9 km/h (1 Bft) O-SO 112 5 min 16,4 C 25,8 C 2,3 km/h (1 Bft)
29.06.2016 12:20 22,3 C 23,2 C 21,1 C 26,3 C 26,3 C 4,0 C 71 % 87 % 100 % 1011,6 hPa 0,0 l/m 2,6 km/h (1 Bft) W-SW 247 5 min 16,8 C 26,3 C 10,8 km/h (2 Bft)
29.06.2016 12:25 22,5 C 23,2 C 21,2 C 27,3 C 27,3 C 4,8 C 70 % 87 % 100 % 1011,9 hPa 0,0 l/m 3,1 km/h (1 Bft) N-NW 337 5 min 16,7 C 27,3 C 4,0 km/h (1 Bft)
29.06.2016 12:30 22,9 C 23,2 C 21,2 C 27,5 C 27,5 C 4,6 C 70 % 87 % 100 % 1011,9 hPa 0,0 l/m 2,9 km/h (1 Bft) SO 135 5 min 17,1 C 27,5 C 4,0 km/h (1 Bft)
29.06.2016 12:35 23,0 C 23,3 C 21,4 C 28,0 C 28,0 C 5,0 C 69 % 87 % 100 % 1011,9 hPa 0,0 l/m 2,9 km/h (1 Bft) S 180 5 min 17,0 C 28,0 C 2,9 km/h (1 Bft)
29.06.2016 12:55 23,8 C 23,3 C 21,8 C 28,7 C 28,7 C 4,9 C 65 % 86 % 100 % 1011,7 hPa 0,0 l/m 4,3 km/h (1 Bft) N 0 20 min 16,8 C 28,7 C 6,4 km/h (2 Bft)
29.06.2016 13:14 24,8 C 23,3 C 22,4 C 29,3 C 29,3 C 4,5 C 62 % 84 % 100 % 1011,4 hPa 0,0 l/m 4,2 km/h (1 Bft) S-SW 202 19 min 17,0 C 29,3 C 7,2 km/h (2 Bft)
29.06.2016 13:15 24,8 C 23,3 C 22,4 C 29,3 C 29,3 C 4,5 C 62 % 84 % 100 % 1011,4 hPa 0,0 l/m 4,2 km/h (1 Bft) S-SW 202 1 min 17,0 C 29,3 C 7,2 km/h (2 Bft)
29.06.2016 13:16 24,8 C 23,3 C 22,4 C 29,3 C 29,3 C 4,5 C 62 % 84 % 100 % 1011,4 hPa 0,0 l/m 4,2 km/h (1 Bft) S-SW 202 1 min 17,0 C 29,3 C 7,2 km/h (2 Bft)
29.06.2016 13:18 24,9 C 23,3 C 22,6 C 29,2 C 29,2 C 4,3 C 63 % 84 % 100 % 1011,4 hPa 0,0 l/m 4,2 km/h (1 Bft) S 180 2 min 17,4 C 29,2 C 7,9 km/h (2 Bft)
29.06.2016 13:29 25,7 C 23,3 C 22,8 C 30,0 C 30,0 C 4,3 C 60 % 81 % 100 % 1011,6 hPa 0,0 l/m 3,2 km/h (1 Bft) S 180 11 min 17,3 C 30,0 C 2,9 km/h (1 Bft)
29.06.2016 13:40 24,8 C 23,4 C 22,2 C 27,4 C 27,4 C 2,6 C 61 % 81 % 68 % 1011,6 hPa 0,0 l/m 3,5 km/h (1 Bft) S 180 0 min 16,8 C 27,4 C 2,9 km/h (1 Bft)
29.06.2016 13:41 24,8 C 23,4 C 22,2 C 27,4 C 27,4 C 2,6 C 61 % 81 % 68 % 1011,6 hPa 0,0 l/m 3,5 km/h (1 Bft) S 180 0 min 16,8 C 27,4 C 2,9 km/h (1 Bft)
29.06.2016 13:42 24,8 C 23,4 C 22,2 C 27,4 C 27,4 C 2,6 C 61 % 81 % 68 % 1011,6 hPa 0,0 l/m 3,5 km/h (1 Bft) S 180 0 min 16,8 C 27,4 C 2,9 km/h (1 Bft)
29.06.2016 13:43 24,8 C 23,4 C 22,2 C 27,4 C 27,4 C 2,6 C 61 % 81 % 68 % 1011,6 hPa 0,0 l/m 3,5 km/h (1 Bft) S 180 0 min 16,8 C 27,4 C 2,9 km/h (1 Bft)
29.06.2016 13:44 25,1 C 23,4 C 22,5 C 28,1 C 28,1 C 3,0 C 61 % 82 % 79 % 1011,4 hPa 0,0 l/m 3,2 km/h (1 Bft) S 180 0 min 17,0 C 28,1 C 2,9 km/h (1 Bft)
29.06.2016 13:48 25,3 C 23,4 C 22,9 C 28,8 C 28,8 C 3,5 C 60 % 80 % 92 % 1011,4 hPa 0,0 l/m 3,9 km/h (1 Bft) S 180 4 min 17,0 C 28,8 C 7,4 km/h (2 Bft)
29.06.2016 13:57 25,7 C 23,4 C 23,1 C 29,3 C 29,3 C 3,6 C 58 % 79 % 95 % 1011,4 hPa 0,0 l/m 3,9 km/h (1 Bft) N 360 9 min 16,8 C 29,3 C 4,2 km/h (1 Bft)
29.06.2016 14:10 25,4 C 23,4 C 22,9 C 28,5 C 28,5 C 3,1 C 58 % 78 % 82 % 1011,6 hPa 0,0 l/m 2,7 km/h (1 Bft) S-SW 202 0 min 16,5 C 28,5 C 3,4 km/h (1 Bft)
29.06.2016 14:21 25,6 C 23,4 C 23,1 C 28,9 C 28,9 C 3,3 C 58 % 79 % 87 % 1011,6 hPa 0,0 l/m 2,9 km/h (1 Bft) SW 225 11 min 16,7 C 28,9 C 13,2 km/h (3 Bft)
29.06.2016 14:27 26,0 C 23,3 C 23,4 C 29,6 C 29,6 C 3,6 C 55 % 77 % 95 % 1011,4 hPa 0,0 l/m 3,4 km/h (1 Bft) N-NO 22 6 min 16,2 C 29,6 C 5,3 km/h (1 Bft)
29.06.2016 14:28 26,0 C 23,3 C 23,4 C 29,6 C 29,6 C 3,6 C 55 % 77 % 95 % 1011,4 hPa 0,0 l/m 3,4 km/h (1 Bft) N-NO 22 1 min 16,2 C 29,6 C 5,3 km/h (1 Bft)
29.06.2016 14:29 26,2 C 23,4 C 23,7 C 29,9 C 29,9 C 3,7 C 55 % 76 % 97 % 1011,4 hPa 0,0 l/m 5,1 km/h (1 Bft) S 180 1 min 16,4 C 29,9 C 5,6 km/h (1 Bft)
29.06.2016 14:30 26,2 C 23,4 C 23,7 C 29,9 C 29,9 C 3,7 C 55 % 76 % 97 % 1011,4 hPa 0,0 l/m 5,1 km/h (1 Bft) S 180 1 min 16,4 C 29,9 C 5,6 km/h (1 Bft)
29.06.2016 14:31 26,2 C 23,4 C 23,7 C 29,9 C 29,9 C 3,7 C 55 % 76 % 97 % 1011,4 hPa 0,0 l/m 5,1 km/h (1 Bft) S 180 1 min 16,4 C 29,9 C 5,6 km/h (1 Bft)
29.06.2016 14:33 26,2 C 23,4 C 23,6 C 29,9 C 29,9 C 3,7 C 55 % 75 % 97 % 1011,4 hPa 0,0 l/m 4,5 km/h (1 Bft) W 270 2 min 16,4 C 29,9 C 3,4 km/h (1 Bft)
29.06.2016 14:38 26,2 C 23,4 C 23,6 C 29,9 C 29,9 C 3,7 C 55 % 75 % 97 % 1011,4 hPa 0,0 l/m 4,5 km/h (1 Bft) W 270 5 min 16,4 C 29,9 C 3,4 km/h (1 Bft)
29.06.2016 14:45 25,8 C 23,4 C 23,4 C 28,9 C 28,9 C 3,1 C 56 % 75 % 82 % 1011,1 hPa 0,0 l/m 3,1 km/h (1 Bft) S 180 0 min 16,3 C 28,9 C 4,2 km/h (1 Bft)
29.06.2016 14:50 25,9 C 23,4 C 23,4 C 29,1 C 29,1 C 3,2 C 56 % 76 % 84 % 1011,1 hPa 0,0 l/m 2,7 km/h (1 Bft) S 180 0 min 16,4 C 29,1 C 4,5 km/h (1 Bft)
29.06.2016 14:55 26,1 C 23,4 C 23,6 C 29,5 C 29,5 C 3,4 C 56 % 75 % 89 % 1011,1 hPa 0,0 l/m 3,1 km/h (1 Bft) S-SW 202 5 min 16,6 C 29,5 C 6,4 km/h (2 Bft)
29.06.2016 15:00 26,0 C 23,4 C 23,4 C 29,2 C 29,2 C 3,2 C 56 % 75 % 84 % 1011,1 hPa 0,0 l/m 2,4 km/h (1 Bft) S-SW 202 0 min 16,5 C 29,2 C 2,1 km/h (1 Bft)
29.06.2016 15:10 26,7 C 23,4 C 23,9 C 30,3 C 30,3 C 3,6 C 55 % 75 % 95 % 1011,1 hPa 0,0 l/m 3,1 km/h (1 Bft) S 180 10 min 16,9 C 30,3 C 4,7 km/h (1 Bft)
29.06.2016 15:15 26,6 C 23,4 C 24,1 C 30,5 C 30,5 C 3,9 C 54 % 75 % 100 % 1011,1 hPa 0,0 l/m 4,2 km/h (1 Bft) S-SO 157 5 min 16,5 C 30,5 C 3,4 km/h (1 Bft)
29.06.2016 15:20 26,7 C 23,4 C 23,7 C 29,4 C 29,4 C 2,7 C 52 % 73 % 71 % 1011,1 hPa 0,0 l/m 3,4 km/h (1 Bft) O-NO 67 0 min 16,0 C 29,4 C 5,3 km/h (1 Bft)
29.06.2016 15:25 26,3 C 23,4 C 23,5 C 28,5 C 28,5 C 2,2 C 53 % 73 % 58 % 1010,9 hPa 0,0 l/m 2,7 km/h (1 Bft) S 180 0 min 15,9 C 28,5 C 8,0 km/h (2 Bft)
29.06.2016 15:30 26,4 C 23,5 C 23,9 C 29,3 C 29,3 C 2,9 C 53 % 72 % 76 % 1010,9 hPa 0,0 l/m 3,9 km/h (1 Bft) SW 225 0 min 16,0 C 29,3 C 6,4 km/h (2 Bft)
29.06.2016 15:35 26,5 C 23,5 C 24,2 C 29,8 C 29,8 C 3,3 C 54 % 72 % 87 % 1010,9 hPa 0,0 l/m 4,0 km/h (1 Bft) SW 225 5 min 16,4 C 29,8 C 4,5 km/h (1 Bft)
29.06.2016 15:59 26,8 C 23,5 C 24,6 C 30,5 C 30,5 C 3,7 C 50 % 64 % 97 % 1010,9 hPa 0,0 l/m 3,7 km/h (1 Bft) N 0 24 min 15,5 C 30,5 C 3,5 km/h (1 Bft)
29.06.2016 16:06 26,7 C 23,5 C 24,7 C 30,3 C 30,3 C 3,6 C 51 % 64 % 95 % 1011,4 hPa 0,0 l/m 3,2 km/h (1 Bft) S 180 7 min 15,7 C 30,3 C 1,9 km/h (1 Bft)
29.06.2016 16:12 26,3 C 23,5 C 24,2 C 29,0 C 29,0 C 2,7 C 51 % 65 % 71 % 1011,4 hPa 0,0 l/m 3,2 km/h (1 Bft) NW 315 0 min 15,3 C 29,0 C 0,0 km/h (0 Bft)
29.06.2016 16:39 25,5 C 23,6 C 26,3 C 29,4 C 29,4 C 3,9 C 53 % 61 % 100 % 1010,8 hPa 0,0 l/m 4,0 km/h (1 Bft) S 180 27 min 15,2 C 29,4 C 7,1 km/h (2 Bft)
29.06.2016 16:40 25,5 C 23,6 C 26,3 C 29,4 C 29,4 C 3,9 C 53 % 61 % 100 % 1010,8 hPa 0,0 l/m 4,0 km/h (1 Bft) S 180 1 min 15,2 C 29,4 C 7,1 km/h (2 Bft)
29.06.2016 16:41 25,5 C 23,6 C 26,3 C 29,4 C 29,4 C 3,9 C 53 % 61 % 100 % 1010,8 hPa 0,0 l/m 4,0 km/h (1 Bft) S 180 1 min 15,2 C 29,4 C 7,1 km/h (2 Bft)
29.06.2016 16:42 25,5 C 23,6 C 26,3 C 29,4 C 29,4 C 3,9 C 53 % 61 % 100 % 1010,8 hPa 0,0 l/m 4,0 km/h (1 Bft) S 180 1 min 15,2 C 29,4 C 7,1 km/h (2 Bft)
29.06.2016 16:46 25,6 C 23,6 C 26,6 C 30,1 C 30,1 C 4,5 C 52 % 59 % 100 % 1010,6 hPa 0,0 l/m 4,2 km/h (1 Bft) O-SO 112 4 min 15,0 C 30,1 C 1,6 km/h (1 Bft)
29.06.2016 16:48 25,7 C 23,6 C 25,6 C 29,8 C 29,8 C 4,1 C 52 % 60 % 100 % 1010,6 hPa 0,0 l/m 3,1 km/h (1 Bft) N-NW 337 2 min 15,1 C 29,8 C 4,5 km/h (1 Bft)
29.06.2016 16:53 25,7 C 23,6 C 26,3 C 29,8 C 29,8 C 4,1 C 53 % 61 % 100 % 1010,6 hPa 0,0 l/m 2,1 km/h (1 Bft) N 360 5 min 15,4 C 29,8 C 1,8 km/h (1 Bft)
29.06.2016 16:58 25,7 C 23,6 C 26,3 C 30,8 C 30,8 C 5,1 C 51 % 57 % 100 % 1010,6 hPa 0,0 l/m 2,7 km/h (1 Bft) NW 315 5 min 14,8 C 30,8 C 3,7 km/h (1 Bft)
29.06.2016 17:03 25,6 C 23,6 C 25,5 C 30,3 C 30,3 C 4,7 C 51 % 57 % 100 % 1010,7 hPa 0,0 l/m 2,9 km/h (1 Bft) NO 45 5 min 14,7 C 30,3 C 3,5 km/h (1 Bft)
29.06.2016 17:10 25,4 C 23,6 C 24,5 C 28,0 C 28,0 C 2,6 C 50 % 58 % 68 % 1010,7 hPa 0,0 l/m 2,7 km/h (1 Bft) N 360 0 min 14,2 C 28,0 C 2,7 km/h (1 Bft)
29.06.2016 17:20 25,1 C 23,6 C 25,2 C 27,9 C 27,9 C 2,8 C 51 % 59 % 74 % 1010,7 hPa 0,0 l/m 3,1 km/h (1 Bft) O 90 0 min 14,2 C 27,9 C 3,4 km/h (1 Bft)
29.06.2016 17:25 25,3 C 23,6 C 25,5 C 29,1 C 29,1 C 3,8 C 51 % 58 % 100 % 1010,5 hPa 0,0 l/m 3,7 km/h (1 Bft) SO 135 5 min 14,4 C 29,1 C 3,4 km/h (1 Bft)
29.06.2016 17:30 25,4 C 23,7 C 26,3 C 30,0 C 30,0 C 4,6 C 51 % 56 % 100 % 1010,5 hPa 0,0 l/m 3,9 km/h (1 Bft) SW 225 5 min 14,5 C 30,0 C 4,3 km/h (1 Bft)
29.06.2016 17:35 25,5 C 23,7 C 26,5 C 30,4 C 30,4 C 4,9 C 50 % 56 % 100 % 1010,5 hPa 0,0 l/m 4,2 km/h (1 Bft) W 270 5 min 14,3 C 30,4 C 12,4 km/h (3 Bft)
29.06.2016 17:40 25,5 C 23,7 C 26,7 C 30,8 C 30,8 C 5,3 C 51 % 56 % 100 % 1010,5 hPa 0,0 l/m 3,9 km/h (1 Bft) SO 135 5 min 14,6 C 30,8 C 5,5 km/h (1 Bft)
29.06.2016 17:45 25,5 C 23,7 C 26,0 C 30,7 C 30,7 C 5,2 C 49 % 54 % 100 % 1010,6 hPa 0,0 l/m 4,3 km/h (1 Bft) S 180 5 min 14,0 C 30,7 C 14,6 km/h (3 Bft)
29.06.2016 17:50 25,5 C 23,7 C 25,5 C 30,5 C 30,5 C 5,0 C 50 % 55 % 100 % 1010,6 hPa 0,0 l/m 4,0 km/h (1 Bft) O-NO 67 5 min 14,3 C 30,5 C 3,7 km/h (1 Bft)
29.06.2016 17:55 25,7 C 23,7 C 25,5 C 30,9 C 30,9 C 5,2 C 50 % 55 % 100 % 1010,6 hPa 0,0 l/m 3,4 km/h (1 Bft) NW 315 5 min 14,5 C 30,9 C 1,9 km/h (1 Bft)
29.06.2016 18:00 25,6 C 23,7 C 25,2 C 31,1 C 31,1 C 5,5 C 51 % 57 % 100 % 1010,6 hPa 0,0 l/m 2,6 km/h (1 Bft) W-SW 247 5 min 14,7 C 31,1 C 3,4 km/h (1 Bft)
29.06.2016 18:05 25,7 C 23,7 C 25,1 C 30,8 C 30,8 C 5,1 C 49 % 57 % 100 % 1010,4 hPa 0,0 l/m 3,1 km/h (1 Bft) SW 225 5 min 14,2 C 30,8 C 7,9 km/h (2 Bft)
29.06.2016 18:15 25,6 C 23,7 C 24,9 C 30,6 C 30,6 C 5,0 C 49 % 56 % 100 % 1010,4 hPa 0,0 l/m 3,7 km/h (1 Bft) S-SW 202 10 min 14,1 C 30,6 C 1,6 km/h (1 Bft)
29.06.2016 18:20 25,6 C 23,7 C 24,9 C 30,7 C 30,7 C 5,1 C 49 % 57 % 100 % 1010,4 hPa 0,0 l/m 3,1 km/h (1 Bft) S 180 5 min 14,1 C 30,7 C 2,9 km/h (1 Bft)
29.06.2016 18:25 25,5 C 23,7 C 24,6 C 30,5 C 30,5 C 5,0 C 50 % 57 % 100 % 1010,6 hPa 0,0 l/m 2,9 km/h (1 Bft) W-SW 247 5 min 14,3 C 30,5 C 5,1 km/h (1 Bft)
29.06.2016 18:30 25,5 C 23,7 C 24,6 C 30,2 C 30,2 C 4,7 C 50 % 57 % 100 % 1010,6 hPa 0,0 l/m 3,1 km/h (1 Bft) W-NW 292 5 min 14,3 C 30,2 C 2,3 km/h (1 Bft)
29.06.2016 18:35 25,5 C 23,7 C 24,5 C 30,0 C 30,0 C 4,5 C 50 % 58 % 100 % 1010,6 hPa 0,0 l/m 3,1 km/h (1 Bft) SW 225 5 min 14,3 C 30,0 C 4,5 km/h (1 Bft)
29.06.2016 18:51 25,3 C 23,7 C 24,3 C 30,3 C 30,3 C 5,0 C 52 % 60 % 100 % 1010,8 hPa 0,0 l/m 2,4 km/h (1 Bft) N 0 16 min 14,7 C 30,3 C 1,9 km/h (1 Bft)
29.06.2016 19:14 24,7 C 23,7 C 23,3 C 26,5 C 26,5 C 1,8 C 51 % 61 % 47 % 1011,1 hPa 0,0 l/m 1,6 km/h (1 Bft) S 180 0 min 13,9 C 26,5 C 5,0 km/h (1 Bft)
29.06.2016 19:15 24,7 C 23,7 C 23,3 C 26,5 C 26,5 C 1,8 C 51 % 61 % 47 % 1011,1 hPa 0,0 l/m 1,6 km/h (1 Bft) S 180 0 min 13,9 C 26,5 C 5,0 km/h (1 Bft)
29.06.2016 19:16 24,7 C 23,7 C 23,3 C 26,5 C 26,5 C 1,8 C 51 % 61 % 47 % 1011,1 hPa 0,0 l/m 1,6 km/h (1 Bft) S 180 0 min 13,9 C 26,5 C 5,0 km/h (1 Bft)
29.06.2016 19:18 24,7 C 23,7 C 23,3 C 26,5 C 26,5 C 1,8 C 51 % 61 % 47 % 1011,1 hPa 0,0 l/m 1,6 km/h (1 Bft) S 180 0 min 13,9 C 26,5 C 5,0 km/h (1 Bft)
29.06.2016 19:21 24,7 C 23,7 C 23,2 C 26,9 C 26,9 C 2,2 C 52 % 61 % 58 % 1011,1 hPa 0,0 l/m 1,1 km/h (1 Bft) S 180 0 min 14,2 C 26,9 C 2,4 km/h (1 Bft)
29.06.2016 19:30 24,4 C 23,8 C 23,0 C 26,7 C 26,7 C 2,3 C 53 % 63 % 61 % 1010,9 hPa 0,0 l/m 1,4 km/h (1 Bft) NW 315 0 min 14,2 C 26,7 C 2,6 km/h (1 Bft)
29.06.2016 19:35 24,4 C 23,8 C 23,1 C 27,1 C 27,1 C 2,7 C 54 % 64 % 71 % 1010,9 hPa 0,0 l/m 1,3 km/h (1 Bft) S 180 5 min 14,5 C 27,1 C 5,8 km/h (2 Bft)
29.06.2016 19:40 24,5 C 23,8 C 22,9 C 27,3 C 27,3 C 2,8 C 54 % 64 % 74 % 1010,9 hPa 0,0 l/m 1,1 km/h (1 Bft) NW 315 5 min 14,6 C 27,3 C 0,0 km/h (0 Bft)
29.06.2016 19:45 24,3 C 23,8 C 22,7 C 26,7 C 26,7 C 2,4 C 54 % 64 % 63 % 1011,2 hPa 0,0 l/m 1,0 km/h (0 Bft) W 270 5 min 14,4 C 26,7 C 2,7 km/h (1 Bft)
29.06.2016 19:50 24,1 C 23,8 C 22,5 C 25,3 C 25,3 C 1,2 C 55 % 65 % 32 % 1011,2 hPa 0,0 l/m 0,3 km/h (0 Bft) W 270 0 min 14,5 C 25,3 C 1,8 km/h (1 Bft)
29.06.2016 19:55 24,1 C 23,8 C 22,2 C 24,6 C 24,6 C 0,5 C 55 % 66 % 13 % 1011,2 hPa 0,0 l/m 0,2 km/h (0 Bft) W-SW 247 0 min 14,5 C 24,6 C 0,0 km/h (0 Bft)
29.06.2016 20:00 23,7 C 23,8 C 22,0 C 24,1 C 24,1 C 0,4 C 56 % 66 % 11 % 1011,2 hPa 0,0 l/m 0,2 km/h (0 Bft) NW 315 0 min 14,4 C 24,1 C 0,0 km/h (0 Bft)
29.06.2016 20:05 23,6 C 23,8 C 22,0 C 23,9 C 23,9 C 0,3 C 56 % 67 % 8 % 1011,4 hPa 0,0 l/m 0,0 km/h (0 Bft) S 180 0 min 14,3 C 23,9 C 0,0 km/h (0 Bft)
29.06.2016 20:10 23,4 C 23,8 C 21,8 C 23,4 C 23,4 C 0,0 C 56 % 68 % 0 % 1011,4 hPa 0,0 l/m 0,2 km/h (0 Bft) SO 135 0 min 14,1 C 23,4 C 0,0 km/h (0 Bft)
29.06.2016 20:15 23,3 C 23,8 C 21,7 C 23,2 C 23,1 C 0,0 C 56 % 67 % 0 % 1011,4 hPa 0,0 l/m 0,2 km/h (0 Bft) S 180 0 min 14,0 C 23,1 C 0,0 km/h (0 Bft)
29.06.2016 20:20 23,2 C 23,8 C 21,7 C 23,1 C 22,8 C 0,0 C 57 % 68 % 0 % 1011,4 hPa 0,0 l/m 0,2 km/h (0 Bft) W-NW 292 0 min 14,2 C 22,8 C 0,0 km/h (0 Bft)
29.06.2016 20:25 23,1 C 23,9 C 21,7 C 22,9 C 22,6 C 0,0 C 57 % 68 % 0 % 1011,4 hPa 0,0 l/m 0,2 km/h (0 Bft) NW 315 0 min 14,1 C 22,6 C 0,0 km/h (0 Bft)
29.06.2016 20:30 22,9 C 23,9 C 21,5 C 22,7 C 22,2 C 0,0 C 58 % 69 % 0 % 1011,4 hPa 0,0 l/m 0,0 km/h (0 Bft) S-SO 157 0 min 14,2 C 22,2 C 0,0 km/h (0 Bft)
29.06.2016 20:35 22,8 C 23,9 C 21,2 C 22,5 C 21,9 C 0,0 C 58 % 68 % 0 % 1011,4 hPa 0,0 l/m 0,0 km/h (0 Bft) S-SO 157 0 min 14,1 C 21,9 C 0,0 km/h (0 Bft)
29.06.2016 20:40 22,5 C 23,9 C 21,0 C 22,2 C 21,5 C 0,0 C 59 % 69 % 0 % 1011,4 hPa 0,0 l/m 0,0 km/h (0 Bft) SW 225 0 min 14,1 C 21,5 C 0,0 km/h (0 Bft)
29.06.2016 20:45 22,4 C 23,9 C 20,8 C 22,0 C 21,2 C 0,0 C 59 % 70 % 0 % 1011,4 hPa 0,0 l/m 0,0 km/h (0 Bft) W-SW 247 0 min 14,0 C 21,2 C 0,0 km/h (0 Bft)
29.06.2016 20:50 22,1 C 23,9 C 20,7 C 21,7 C 20,8 C 0,0 C 60 % 71 % 0 % 1011,4 hPa 0,0 l/m 0,0 km/h (0 Bft) N-NO 22 0 min 14,0 C 20,8 C 0,0 km/h (0 Bft)
29.06.2016 21:00 21,7 C 23,9 C 20,3 C 21,2 C 20,3 C 0,0 C 61 % 71 % 0 % 1011,4 hPa 0,0 l/m 0,0 km/h (0 Bft) S-SO 157 0 min 13,8 C 20,3 C 0,0 km/h (0 Bft)
29.06.2016 21:05 21,5 C 23,9 C 20,0 C 21,0 C 20,0 C 0,0 C 62 % 72 % 0 % 1011,3 hPa 0,0 l/m 0,0 km/h (0 Bft) N-NO 22 0 min 13,9 C 20,0 C 0,0 km/h (0 Bft)
29.06.2016 21:10 21,2 C 23,9 C 19,8 C 20,7 C 19,6 C 0,0 C 63 % 72 % 0 % 1011,3 hPa 0,0 l/m 0,0 km/h (0 Bft) W-SW 247 0 min 13,9 C 19,6 C 0,0 km/h (0 Bft)
29.06.2016 21:15 20,9 C 23,9 C 19,7 C 20,4 C 19,3 C 0,0 C 63 % 73 % 0 % 1011,3 hPa 0,0 l/m 0,0 km/h (0 Bft) S-SO 157 0 min 13,6 C 19,3 C 0,0 km/h (0 Bft)
29.06.2016 21:20 20,7 C 23,9 C 19,5 C 20,1 C 18,9 C 0,0 C 63 % 74 % 0 % 1011,3 hPa 0,0 l/m 0,0 km/h (0 Bft) W-SW 247 0 min 13,4 C 18,9 C 0,0 km/h (0 Bft)
29.06.2016 21:30 20,3 C 23,9 C 19,0 C 19,6 C 18,2 C 0,0 C 65 % 75 % 0 % 1011,4 hPa 0,0 l/m 0,0 km/h (0 Bft) NW 315 0 min 13,5 C 18,2 C 0,0 km/h (0 Bft)
29.06.2016 21:35 20,1 C 23,9 C 18,8 C 19,4 C 17,9 C 0,0 C 66 % 76 % 0 % 1011,4 hPa 0,0 l/m 0,0 km/h (0 Bft) O-SO 112 0 min 13,5 C 17,9 C 0,0 km/h (0 Bft)
29.06.2016 21:54 19,1 C 23,9 C 18,0 C 18,4 C 17,0 C 0,0 C 70 % 77 % 0 % 1011,7 hPa 0,0 l/m 0,0 km/h (0 Bft) N 0 0 min 13,5 C 17,0 C 0,0 km/h (0 Bft)
29.06.2016 21:55 19,1 C 23,9 C 18,0 C 18,4 C 17,0 C 0,0 C 70 % 77 % 0 % 1011,7 hPa 0,0 l/m 0,0 km/h (0 Bft) O-SO 112 0 min 13,5 C 17,0 C 0,0 km/h (0 Bft)
29.06.2016 22:00 18,8 C 23,9 C 17,9 C 18,1 C 16,8 C 0,0 C 71 % 77 % 0 % 1011,7 hPa 0,0 l/m 0,0 km/h (0 Bft) SO 135 0 min 13,4 C 16,8 C 0,0 km/h (0 Bft)
29.06.2016 22:05 18,6 C 23,9 C 17,8 C 17,9 C 16,6 C 0,0 C 71 % 77 % 0 % 1011,6 hPa 0,0 l/m 0,0 km/h (0 Bft) N 360 0 min 13,2 C 16,6 C 0,0 km/h (0 Bft)
29.06.2016 22:10 18,3 C 23,9 C 17,6 C 17,7 C 16,4 C 0,0 C 72 % 78 % 0 % 1011,6 hPa 0,0 l/m 0,3 km/h (0 Bft) N-NW 337 0 min 13,2 C 16,4 C 0,0 km/h (0 Bft)
29.06.2016 22:15 18,1 C 23,9 C 17,6 C 17,6 C 16,5 C 0,0 C 72 % 78 % 0 % 1011,6 hPa 0,0 l/m 0,3 km/h (0 Bft) O-NO 67 0 min 13,0 C 16,5 C 0,0 km/h (0 Bft)
29.06.2016 22:20 18,1 C 23,9 C 17,5 C 17,6 C 16,5 C 0,0 C 72 % 78 % 0 % 1011,6 hPa 0,0 l/m 0,2 km/h (0 Bft) O-NO 67 0 min 13,0 C 16,5 C 0,0 km/h (0 Bft)
29.06.2016 22:25 17,9 C 23,9 C 17,5 C 17,4 C 16,5 C 0,0 C 73 % 78 % 0 % 1011,9 hPa 0,0 l/m 0,0 km/h (0 Bft) O-NO 67 0 min 13,0 C 16,5 C 1,6 km/h (1 Bft)
29.06.2016 22:30 17,8 C 23,9 C 17,3 C 17,3 C 16,4 C 0,0 C 73 % 79 % 0 % 1011,9 hPa 0,0 l/m 0,2 km/h (0 Bft) O-NO 67 0 min 12,9 C 16,4 C 0,0 km/h (0 Bft)
29.06.2016 22:35 17,6 C 23,9 C 17,2 C 17,2 C 16,3 C 0,0 C 74 % 80 % 0 % 1011,9 hPa 0,0 l/m 0,2 km/h (0 Bft) O-NO 67 0 min 12,9 C 16,3 C 0,0 km/h (0 Bft)
29.06.2016 22:40 17,4 C 23,9 C 17,1 C 17,0 C 16,1 C 0,0 C 74 % 80 % 0 % 1011,9 hPa 0,0 l/m 0,0 km/h (0 Bft) O-NO 67 0 min 12,7 C 16,1 C 0,0 km/h (0 Bft)
29.06.2016 22:45 17,3 C 23,9 C 17,1 C 16,9 C 16,1 C 0,0 C 75 % 80 % 0 % 1012,1 hPa 0,0 l/m 0,2 km/h (0 Bft) O-NO 67 0 min 12,8 C 16,1 C 0,0 km/h (0 Bft)
29.06.2016 22:50 17,2 C 23,9 C 16,8 C 16,8 C 16,1 C 0,0 C 75 % 80 % 0 % 1012,1 hPa 0,0 l/m 0,3 km/h (0 Bft) O-NO 67 0 min 12,7 C 16,1 C 0,0 km/h (0 Bft)
29.06.2016 22:55 17,1 C 23,9 C 16,9 C 16,8 C 16,1 C 0,0 C 75 % 81 % 0 % 1012,1 hPa 0,0 l/m 0,2 km/h (0 Bft) NO 45 0 min 12,6 C 16,1 C 0,0 km/h (0 Bft)
29.06.2016 23:00 17,1 C 23,9 C 16,8 C 16,7 C 16,0 C 0,0 C 75 % 81 % 0 % 1012,1 hPa 0,0 l/m 0,0 km/h (0 Bft) O-NO 67 0 min 12,6 C 16,0 C 0,0 km/h (0 Bft)
29.06.2016 23:03 16,9 C 23,9 C 16,7 C 16,6 C 16,0 C 0,0 C 75 % 81 % 0 % 1012,2 hPa 0,0 l/m 0,0 km/h (0 Bft) O 90 0 min 12,4 C 16,0 C 0,0 km/h (0 Bft)
29.06.2016 23:08 16,8 C 23,9 C 16,6 C 16,5 C 15,8 C 0,0 C 76 % 81 % 0 % 1012,2 hPa 0,0 l/m 0,0 km/h (0 Bft) O-NO 67 0 min 12,5 C 15,8 C 0,0 km/h (0 Bft)
29.06.2016 23:13 16,6 C 23,9 C 16,5 C 16,3 C 15,7 C 0,0 C 76 % 82 % 0 % 1012,2 hPa 0,0 l/m 0,3 km/h (0 Bft) O-NO 67 0 min 12,3 C 15,7 C 2,1 km/h (1 Bft)
29.06.2016 23:18 16,4 C 23,9 C 16,5 C 16,1 C 15,6 C 0,0 C 76 % 82 % 0 % 1012,2 hPa 0,0 l/m 0,5 km/h (0 Bft) O-NO 67 0 min 12,2 C 15,6 C 0,0 km/h (0 Bft)
29.06.2016 23:24 16,4 C 23,9 C 16,4 C 16,1 C 15,5 C 0,0 C 77 % 82 % 0 % 1012,5 hPa 0,0 l/m 0,2 km/h (0 Bft) O-NO 67 0 min 12,4 C 15,5 C 0,0 km/h (0 Bft)
29.06.2016 23:35 16,1 C 23,9 C 16,2 C 15,8 C 15,3 C 0,0 C 77 % 82 % 0 % 1012,5 hPa 0,0 l/m 0,2 km/h (0 Bft) O-NO 67 0 min 12,1 C 15,3 C 1,6 km/h (1 Bft)
29.06.2016 23:40 16,0 C 23,9 C 16,1 C 15,7 C 15,2 C 0,0 C 77 % 83 % 0 % 1012,5 hPa 0,0 l/m 0,2 km/h (0 Bft) O 90 0 min 12,0 C 15,2 C 0,0 km/h (0 Bft)
29.06.2016 23:45 15,9 C 23,9 C 16,0 C 15,6 C 15,1 C 0,0 C 78 % 83 % 0 % 1012,4 hPa 0,0 l/m 0,0 km/h (0 Bft) NO 45 0 min 12,1 C 15,1 C 0,0 km/h (0 Bft)
29.06.2016 23:50 15,6 C 23,9 C 15,9 C 15,4 C 14,9 C 0,0 C 78 % 83 % 0 % 1012,4 hPa 0,0 l/m 0,0 km/h (0 Bft) NO 45 0 min 11,8 C 14,9 C 0,0 km/h (0 Bft)
29.06.2016 23:55 15,6 C 23,9 C 15,9 C 15,3 C 14,7 C 0,0 C 78 % 83 % 0 % 1012,4 hPa 0,0 l/m 0,0 km/h (0 Bft) NO 45 0 min 11,8 C 14,7 C 0,0 km/h (0 Bft)
_ Min-Zeit 00:58 10:13 02:03 00:13 00:08 00:03 17:45 17:45 00:03 18:05 - 00:03 - - - 00:43 00:08 00:03
Minimum _ 13,9 C 23,0 C 15,3 C 14,2 C 14,1 C 0,0 C 49 % 54 % 0 % 1010,4 hPa - 0,0 km/h (0 Bft) - - - 11,3 C 14,1 C 0,0 km/h (0 Bft)
_ Max-Zeit 15:59 00:13 17:40 18:00 18:00 09:35 08:10 00:28 08:35 00:03 05:08 14:29 - - 16:39 09:20 18:00 17:45
Maximum _ 26,8 C 23,9 C 26,7 C 31,1 C 31,1 C 9,9 C 92 % 89 % 100 % 1013,4 hPa 2,1 l/m 5,1 km/h
S (1 Bft)
- - 27 min 17,4 C 31,1 C 14,6 km/h
S (3 Bft)
Durchschnitt _ 19,7 C 23,6 C 19,4 C 22,1 C 22,0 C 2,5 C 73 % 75 % 47 % 1011,5 hPa #13,0 l/m 1,5 km/h (1 Bft) S - #9:33 h 14,3 C 22,0 C 2,4 km/h (1 Bft)
2016 www.wetterstation-wechselburg.de